createdAt,value
2022-11-12T00:01:10.160Z,10.00
2022-11-12T00:03:36.668Z,9.87
2022-11-12T00:06:04.399Z,9.85
2022-11-12T00:08:30.945Z,10.07
2022-11-12T00:10:57.493Z,9.84
2022-11-12T00:13:24.067Z,10.13
2022-11-12T00:15:50.832Z,10.11
2022-11-12T00:18:17.370Z,9.99
2022-11-12T00:20:44.667Z,9.88
2022-11-12T00:23:11.302Z,9.86
2022-11-12T00:25:37.912Z,9.78
2022-11-12T00:28:07.850Z,9.72
2022-11-12T00:30:40.295Z,9.94
2022-11-12T00:33:09.837Z,9.94
2022-11-12T00:35:39.831Z,9.93
2022-11-12T00:38:09.442Z,9.97
2022-11-12T00:40:39.059Z,9.84
2022-11-12T00:43:08.225Z,9.78
2022-11-12T00:45:34.736Z,9.87
2022-11-12T00:48:01.260Z,9.72
2022-11-12T00:50:27.815Z,9.94
2022-11-12T00:52:54.387Z,9.89
2022-11-12T00:55:21.182Z,9.78
2022-11-12T00:57:47.682Z,9.69
2022-11-12T01:00:17.515Z,9.74
2022-11-12T01:02:49.396Z,9.69
2022-11-12T01:05:17.507Z,9.98
2022-11-12T01:07:44.247Z,10.00
2022-11-12T01:10:11.554Z,10.10
2022-11-12T01:12:41.525Z,9.87
2022-11-12T01:15:12.232Z,9.97
2022-11-12T01:17:41.847Z,9.77
2022-11-12T01:20:12.315Z,10.08
2022-11-12T01:22:41.905Z,10.16
2022-11-12T01:25:11.653Z,10.15
2022-11-12T01:27:40.490Z,10.02
2022-11-12T01:30:09.910Z,9.81
2022-11-12T01:32:38.543Z,9.80
2022-11-12T01:35:05.395Z,9.84
2022-11-12T01:37:31.873Z,9.68
2022-11-12T01:39:58.411Z,9.74
2022-11-12T01:42:31.403Z,9.80
2022-11-12T01:44:58.072Z,9.59
2022-11-12T01:47:34.545Z,9.58
2022-11-12T01:50:22.057Z,9.57
2022-11-12T01:53:00.422Z,9.72
2022-11-12T01:55:30.878Z,9.75
2022-11-12T01:58:08.598Z,9.73
2022-11-12T02:00:35.442Z,9.65
2022-11-12T02:03:05.559Z,9.68
2022-11-12T02:05:33.180Z,9.65
2022-11-12T02:08:01.177Z,9.41
2022-11-12T02:10:27.879Z,9.40
2022-11-12T02:13:13.220Z,9.52
2022-11-12T02:15:42.108Z,9.43
2022-11-12T02:18:08.731Z,9.23
2022-11-12T02:20:37.202Z,9.34
2022-11-12T02:23:06.016Z,9.36
2022-11-12T02:25:33.310Z,9.38
2022-11-12T02:28:00.997Z,9.36
2022-11-12T02:30:44.759Z,9.42
2022-11-12T02:35:55.199Z,9.21
2022-11-12T02:38:21.731Z,9.23
2022-11-12T02:40:48.292Z,9.16
2022-11-12T02:43:15.100Z,9.07
2022-11-12T02:45:44.486Z,9.03
2022-11-12T02:48:15.129Z,8.96
2022-11-12T02:50:47.501Z,9.04
2022-11-12T02:53:17.058Z,8.95
2022-11-12T02:55:46.884Z,9.01
2022-11-12T02:58:17.239Z,9.03
2022-11-12T03:00:48.504Z,8.94
2022-11-12T03:03:17.911Z,8.77
2022-11-12T03:05:57.449Z,8.89
2022-11-12T03:08:24.873Z,8.95
2022-11-12T03:10:52.439Z,8.86
2022-11-12T03:13:19.489Z,8.79
2022-11-12T03:15:48.851Z,8.64
2022-11-12T03:18:18.500Z,8.57
2022-11-12T03:20:48.567Z,8.63
2022-11-12T03:23:18.500Z,8.72
2022-11-12T03:25:46.666Z,8.79
2022-11-12T03:28:19.161Z,8.66
2022-11-12T03:30:47.570Z,8.35
2022-11-12T03:33:17.774Z,8.44
2022-11-12T03:35:47.476Z,8.45
2022-11-12T03:38:14.008Z,8.40
2022-11-12T03:40:40.580Z,8.47
2022-11-12T03:43:07.157Z,8.63
2022-11-12T03:45:33.704Z,8.45
2022-11-12T03:48:00.221Z,8.36
2022-11-12T03:50:29.747Z,8.37
2022-11-12T03:52:58.978Z,8.22
2022-11-12T03:55:27.683Z,8.15
2022-11-12T03:57:55.259Z,8.07
2022-11-12T04:00:23.764Z,7.88
2022-11-12T04:02:51.214Z,8.08
2022-11-12T04:05:40.372Z,8.03
2022-11-12T04:08:34.455Z,8.24
2022-11-12T04:11:01.430Z,8.12
2022-11-12T04:13:28.359Z,8.31
2022-11-12T04:16:16.434Z,8.50
2022-11-12T04:19:02.438Z,8.39
2022-11-12T04:21:51.507Z,8.25
2022-11-12T04:24:42.040Z,8.23
2022-11-12T04:27:11.291Z,7.93
2022-11-12T04:29:56.591Z,8.05
2022-11-12T04:32:23.492Z,7.96
2022-11-12T04:34:53.374Z,8.03
2022-11-12T04:37:25.679Z,7.99
2022-11-12T04:39:52.949Z,7.94
2022-11-12T04:42:41.862Z,7.87
2022-11-12T04:45:11.080Z,7.90
2022-11-12T04:47:40.076Z,7.86
2022-11-12T04:50:17.938Z,8.13
2022-11-12T04:52:45.060Z,8.03
2022-11-12T04:55:11.898Z,7.96
2022-11-12T04:57:38.931Z,7.89
2022-11-12T05:00:06.176Z,7.90
2022-11-12T05:02:32.681Z,7.85
2022-11-12T05:04:59.202Z,7.75
2022-11-12T05:07:25.720Z,7.85
2022-11-12T05:09:54.994Z,7.78
2022-11-12T05:12:24.782Z,7.94
2022-11-12T05:14:52.397Z,7.97
2022-11-12T05:17:19.111Z,7.86
2022-11-12T05:19:45.614Z,7.82
2022-11-12T05:22:33.209Z,7.83
2022-11-12T05:24:58.665Z,7.89
2022-11-12T05:27:25.519Z,7.95
2022-11-12T05:29:55.217Z,7.92
2022-11-12T05:32:22.975Z,7.78
2022-11-12T05:34:49.756Z,7.74
2022-11-12T05:37:16.867Z,7.68
2022-11-12T05:39:43.524Z,7.78
2022-11-12T05:42:14.308Z,7.75
2022-11-12T05:44:41.609Z,7.62
2022-11-12T05:47:08.168Z,7.66
2022-11-12T05:49:37.341Z,7.65
2022-11-12T05:52:03.991Z,7.60
2022-11-12T05:54:30.534Z,7.58
2022-11-12T05:56:57.064Z,7.54
2022-11-12T05:59:24.679Z,7.60
2022-11-12T06:01:51.277Z,7.46
2022-11-12T06:04:18.273Z,7.64
2022-11-12T06:06:47.449Z,7.65
2022-11-12T06:09:13.993Z,7.45
2022-11-12T06:11:40.506Z,7.66
2022-11-12T06:14:07.060Z,7.54
2022-11-12T06:16:33.824Z,7.36
2022-11-12T06:19:00.393Z,7.56
2022-11-12T06:21:29.145Z,7.51
2022-11-12T06:24:00.202Z,7.62
2022-11-12T06:26:29.439Z,7.63
2022-11-12T06:28:56.896Z,7.61
2022-11-12T06:31:26.228Z,7.48
2022-11-12T06:33:56.980Z,7.51
2022-11-12T06:36:26.154Z,7.53
2022-11-12T06:38:54.055Z,7.58
2022-11-12T06:41:20.623Z,7.41
2022-11-12T06:43:47.110Z,7.46
2022-11-12T06:46:15.753Z,7.39
2022-11-12T06:48:42.560Z,7.48
2022-11-12T06:51:18.358Z,7.41
2022-11-12T06:53:45.372Z,7.23
2022-11-12T06:56:12.979Z,7.20
2022-11-12T06:58:40.117Z,7.39
2022-11-12T07:01:14.768Z,7.42
2022-11-12T07:03:42.882Z,7.45
2022-11-12T07:06:15.347Z,7.60
2022-11-12T07:08:42.290Z,7.45
2022-11-12T07:11:09.041Z,7.27
2022-11-12T07:13:36.648Z,7.31
2022-11-12T07:16:05.449Z,7.52
2022-11-12T07:18:32.844Z,7.45
2022-11-12T07:21:14.366Z,7.46
2022-11-12T07:23:40.864Z,7.49
2022-11-12T07:26:21.739Z,7.85
2022-11-12T07:28:50.521Z,8.02
2022-11-12T07:31:19.086Z,8.43
2022-11-12T07:33:46.339Z,8.85
2022-11-12T07:36:16.148Z,9.32
2022-11-12T07:38:44.039Z,9.75
2022-11-12T07:41:13.119Z,10.11
2022-11-12T07:43:40.904Z,10.39
2022-11-12T07:46:27.972Z,10.45
2022-11-12T07:48:57.304Z,10.38
2022-11-12T07:51:27.287Z,10.47
2022-11-12T07:53:59.633Z,10.38
2022-11-12T07:56:27.933Z,10.31
2022-11-12T07:58:57.290Z,10.12
2022-11-12T08:01:26.550Z,10.24
2022-11-12T08:03:57.768Z,10.41
2022-11-12T08:06:29.626Z,10.28
2022-11-12T08:08:57.392Z,10.73
2022-11-12T08:11:26.611Z,10.80
2022-11-12T08:13:56.531Z,10.96
2022-11-12T08:16:27.435Z,11.14
2022-11-12T08:18:57.202Z,11.51
2022-11-12T08:21:25.323Z,11.85
2022-11-12T08:23:55.077Z,12.29
2022-11-12T08:26:24.324Z,12.57
2022-11-12T08:28:50.831Z,12.48
2022-11-12T08:31:20.926Z,12.82
2022-11-12T08:33:47.529Z,12.92
2022-11-12T08:36:16.252Z,12.86
2022-11-12T08:38:43.191Z,13.06
2022-11-12T08:41:12.636Z,13.03
2022-11-12T08:43:40.765Z,13.23
2022-11-12T08:46:07.265Z,13.10
2022-11-12T08:48:34.498Z,13.14
2022-11-12T08:51:03.213Z,13.03
2022-11-12T08:53:29.766Z,12.79
2022-11-12T08:55:58.936Z,13.00
2022-11-12T08:58:26.591Z,13.54
2022-11-12T09:00:56.100Z,13.80
2022-11-12T09:03:25.767Z,14.15
2022-11-12T09:05:56.605Z,14.27
2022-11-12T09:08:29.980Z,14.35
2022-11-12T09:10:59.518Z,14.46
2022-11-12T09:13:26.120Z,14.79
2022-11-12T09:15:55.310Z,14.99
2022-11-12T09:18:22.552Z,15.12
2022-11-12T09:20:50.310Z,15.39
2022-11-12T09:23:18.251Z,15.53
2022-11-12T09:25:45.469Z,15.80
2022-11-12T09:28:15.016Z,16.27
2022-11-12T09:30:46.698Z,16.63
2022-11-12T09:33:15.372Z,16.83
2022-11-12T09:35:43.131Z,17.02
2022-11-12T09:38:09.639Z,17.05
2022-11-12T09:40:51.535Z,17.36
2022-11-12T09:43:29.388Z,17.48
2022-11-12T09:46:26.209Z,17.45
2022-11-12T09:48:54.924Z,17.33
2022-11-12T09:51:33.695Z,17.27
2022-11-12T09:54:07.594Z,17.26
2022-11-12T09:56:34.382Z,17.16
2022-11-12T09:59:00.936Z,17.08
2022-11-12T10:01:33.630Z,17.08
2022-11-12T10:04:10.915Z,17.06
2022-11-12T10:06:50.411Z,17.12
2022-11-12T10:09:25.067Z,17.09
2022-11-12T10:12:32.151Z,17.07
2022-11-12T10:15:42.012Z,17.06
2022-11-12T10:18:16.181Z,17.27
2022-11-12T10:20:56.142Z,17.40
2022-11-12T10:23:28.512Z,17.39
2022-11-12T10:26:00.576Z,17.76
2022-11-12T10:28:39.919Z,18.22
2022-11-12T10:31:13.511Z,18.56
2022-11-12T10:33:40.058Z,18.70
2022-11-12T10:36:39.540Z,19.06
2022-11-12T10:39:06.250Z,19.25
2022-11-12T10:41:33.936Z,19.43
2022-11-12T10:44:03.001Z,19.71
2022-11-12T10:46:37.736Z,19.72
2022-11-12T10:49:25.960Z,19.85
2022-11-12T10:51:58.293Z,20.04
2022-11-12T10:54:35.198Z,20.01
2022-11-12T10:57:27.967Z,20.10
2022-11-12T11:00:13.583Z,20.17
2022-11-12T11:02:59.771Z,20.26
2022-11-12T11:05:50.630Z,20.55
2022-11-12T11:08:35.913Z,20.82
2022-11-12T11:11:27.937Z,21.13
2022-11-12T11:14:18.342Z,21.07
2022-11-12T11:16:56.439Z,21.09
2022-11-12T11:19:33.710Z,20.97
2022-11-12T11:22:29.507Z,20.77
2022-11-12T11:25:27.235Z,20.83
2022-11-12T11:28:26.558Z,21.22
2022-11-12T11:31:04.192Z,21.55
2022-11-12T11:33:56.335Z,21.58
2022-11-12T11:36:58.638Z,21.34
2022-11-12T11:39:27.820Z,20.98
2022-11-12T11:42:38.444Z,20.75
2022-11-12T11:45:16.620Z,20.58
2022-11-12T11:48:04.976Z,20.64
2022-11-12T11:50:39.875Z,20.76
2022-11-12T11:53:38.509Z,20.69
2022-11-12T11:56:27.452Z,20.77
2022-11-12T11:59:22.028Z,20.58
2022-11-12T12:02:07.304Z,20.65
2022-11-12T12:04:39.472Z,20.81
2022-11-12T12:07:11.692Z,20.97
2022-11-12T12:09:49.781Z,20.90
2022-11-12T12:12:49.717Z,20.87
2022-11-12T12:15:57.650Z,20.88
2022-11-12T12:18:50.623Z,21.13
2022-11-12T12:21:19.152Z,21.19
2022-11-12T12:24:11.634Z,21.30
2022-11-12T12:26:48.160Z,21.57
2022-11-12T12:29:27.932Z,21.72
2022-11-12T12:32:06.293Z,21.95
2022-11-12T12:34:42.238Z,22.19
2022-11-12T12:37:27.939Z,22.32
2022-11-12T12:40:04.631Z,22.31
2022-11-12T12:42:37.311Z,22.36
2022-11-12T12:45:25.828Z,22.38
2022-11-12T12:47:57.618Z,22.47
2022-11-12T12:50:28.235Z,22.59
2022-11-12T12:53:05.661Z,22.76
2022-11-12T12:55:44.180Z,22.83
2022-11-12T12:58:49.772Z,22.99
2022-11-12T13:01:31.914Z,23.13
2022-11-12T13:04:08.691Z,23.12
2022-11-12T13:06:39.851Z,23.11
2022-11-12T13:09:12.565Z,23.39
2022-11-12T13:12:06.020Z,23.56
2022-11-12T13:14:35.505Z,23.83
2022-11-12T13:17:10.902Z,23.88
2022-11-12T13:19:57.277Z,23.80
2022-11-12T13:22:24.183Z,23.72
2022-11-12T13:25:16.894Z,23.55
2022-11-12T13:27:43.376Z,23.50
2022-11-12T13:30:20.793Z,23.44
2022-11-12T13:32:47.278Z,23.51
2022-11-12T13:35:34.908Z,23.66
2022-11-12T13:38:09.158Z,23.60
2022-11-12T13:40:49.438Z,23.66
2022-11-12T13:43:15.893Z,23.40
2022-11-12T13:45:45.645Z,22.86
2022-11-12T13:49:00.440Z,22.64
2022-11-12T13:51:40.796Z,22.62
2022-11-12T13:54:27.672Z,22.67
2022-11-12T13:56:54.283Z,22.75
2022-11-12T13:59:22.684Z,22.86
2022-11-12T14:01:50.120Z,22.58
2022-11-12T14:04:20.000Z,22.48
2022-11-12T14:07:18.666Z,22.62
2022-11-12T14:09:57.659Z,22.77
2022-11-12T14:12:46.920Z,22.68
2022-11-12T14:15:30.291Z,22.47
2022-11-12T14:18:35.752Z,22.35
2022-11-12T14:21:16.514Z,22.07
2022-11-12T14:23:47.959Z,22.03
2022-11-12T14:26:32.970Z,22.07
2022-11-12T14:28:59.740Z,22.02
2022-11-12T14:31:28.474Z,21.95
2022-11-12T14:33:55.003Z,21.76
2022-11-12T14:36:23.591Z,21.57
2022-11-12T14:39:00.404Z,21.22
2022-11-12T14:41:42.781Z,20.94
2022-11-12T14:44:18.341Z,20.68
2022-11-12T14:46:52.090Z,20.56
2022-11-12T14:49:28.960Z,20.21
2022-11-12T14:52:04.406Z,19.91
2022-11-12T14:54:40.697Z,19.79
2022-11-12T14:57:17.497Z,19.54
2022-11-12T14:59:44.160Z,19.26
2022-11-12T15:05:18.799Z,19.13
2022-11-12T15:08:03.374Z,19.13
2022-11-12T15:10:42.313Z,19.00
2022-11-12T15:13:10.398Z,18.86
2022-11-12T15:15:55.098Z,18.80
2022-11-12T15:18:31.386Z,18.77
2022-11-12T15:21:30.339Z,18.91
2022-11-12T15:24:06.027Z,18.94
2022-11-12T15:26:36.199Z,18.85
2022-11-12T15:29:15.383Z,18.93
2022-11-12T15:31:47.723Z,18.78
2022-11-12T15:34:39.638Z,18.74
2022-11-12T15:37:17.875Z,18.62
2022-11-12T15:39:48.158Z,18.35
2022-11-12T15:42:27.393Z,18.27
2022-11-12T15:45:02.425Z,18.08
2022-11-12T15:47:29.321Z,17.79
2022-11-12T15:50:15.295Z,17.36
2022-11-12T15:52:41.898Z,17.21
2022-11-12T15:55:10.935Z,16.91
2022-11-12T15:57:48.705Z,16.78
2022-11-12T16:00:18.756Z,16.52
2022-11-12T16:02:47.801Z,16.38
2022-11-12T16:05:16.021Z,16.30
2022-11-12T16:07:42.684Z,16.12
2022-11-12T16:10:14.445Z,16.03
2022-11-12T16:12:42.356Z,15.99
2022-11-12T16:15:20.692Z,15.80
2022-11-12T16:17:48.248Z,15.71
2022-11-12T16:20:23.724Z,15.67
2022-11-12T16:22:51.046Z,15.47
2022-11-12T16:25:19.333Z,15.11
2022-11-12T16:27:50.165Z,15.15
2022-11-12T16:30:28.394Z,14.96
2022-11-12T16:33:00.952Z,14.90
2022-11-12T16:35:34.894Z,14.77
2022-11-12T16:38:01.611Z,14.60
2022-11-12T16:40:31.129Z,14.50
2022-11-12T16:43:00.905Z,14.33
2022-11-12T16:45:43.193Z,14.30
2022-11-12T16:48:19.567Z,14.16
2022-11-12T16:50:46.484Z,14.16
2022-11-12T16:53:13.363Z,13.92
2022-11-12T16:55:40.273Z,13.92
2022-11-12T16:58:06.840Z,13.65
2022-11-12T17:00:33.431Z,13.67
2022-11-12T17:03:00.315Z,13.71
2022-11-12T17:05:29.463Z,13.68
2022-11-12T17:08:00.603Z,13.57
2022-11-12T17:10:31.023Z,13.59
2022-11-12T17:13:00.292Z,13.63
2022-11-12T17:15:28.407Z,13.55
2022-11-12T17:17:58.496Z,13.57
2022-11-12T17:20:25.029Z,13.45
2022-11-12T17:22:51.526Z,13.43
2022-11-12T17:25:18.073Z,13.27
2022-11-12T17:27:44.577Z,13.12
2022-11-12T17:30:12.091Z,13.10
2022-11-12T17:32:38.765Z,13.10
2022-11-12T17:35:05.829Z,13.00
2022-11-12T17:37:32.323Z,13.00
2022-11-12T17:39:59.163Z,13.12
2022-11-12T17:42:25.647Z,13.07
2022-11-12T17:44:52.159Z,13.10
2022-11-12T17:47:18.656Z,13.05
2022-11-12T17:49:45.181Z,12.99
2022-11-12T17:52:11.687Z,12.90
2022-11-12T17:54:38.656Z,12.81
2022-11-12T17:57:05.164Z,12.72
2022-11-12T17:59:31.753Z,12.72
2022-11-12T18:02:00.954Z,12.71
2022-11-12T18:04:31.405Z,12.70
2022-11-12T18:06:59.005Z,12.61
2022-11-12T18:09:28.525Z,12.46
2022-11-12T18:11:57.974Z,12.52
2022-11-12T18:14:28.369Z,12.68
2022-11-12T18:16:55.630Z,12.40
2022-11-12T18:19:22.299Z,12.39
2022-11-12T18:21:48.796Z,12.45
2022-11-12T18:24:16.626Z,12.45
2022-11-12T18:26:44.322Z,12.22
2022-11-12T18:29:12.517Z,12.13
2022-11-12T18:31:40.528Z,12.00
2022-11-12T18:34:07.325Z,11.91
2022-11-12T18:36:33.826Z,11.85
2022-11-12T18:39:04.477Z,11.91
2022-11-12T18:41:32.968Z,11.93
2022-11-12T18:44:05.301Z,11.89
2022-11-12T18:46:31.814Z,11.90
2022-11-12T18:49:00.458Z,11.90
2022-11-12T18:51:26.980Z,11.78
2022-11-12T18:53:53.572Z,11.76
2022-11-12T18:56:21.006Z,11.80
2022-11-12T18:58:47.955Z,11.77
2022-11-12T19:01:21.146Z,11.73
2022-11-12T19:03:51.561Z,11.62
2022-11-12T19:06:18.230Z,11.44
2022-11-12T19:08:44.887Z,11.51
2022-11-12T19:11:13.317Z,11.71
2022-11-12T19:13:41.182Z,11.63
2022-11-12T19:16:11.945Z,11.61
2022-11-12T19:18:40.942Z,11.34
2022-11-12T19:21:11.035Z,11.41
2022-11-12T19:23:38.647Z,11.33
2022-11-12T19:26:09.691Z,11.10
2022-11-12T19:28:36.666Z,11.15
2022-11-12T19:31:15.090Z,11.09
2022-11-12T19:33:42.189Z,11.18
2022-11-12T19:36:12.666Z,10.96
2022-11-12T19:38:39.729Z,11.09
2022-11-12T19:41:07.638Z,10.75
2022-11-12T19:43:34.529Z,10.91
2022-11-12T19:46:02.710Z,10.75
2022-11-12T19:48:33.642Z,10.80
2022-11-12T19:51:09.237Z,10.82
2022-11-12T19:53:41.788Z,11.00
2022-11-12T19:56:08.629Z,10.69
2022-11-12T19:58:35.310Z,10.93
2022-11-12T20:01:10.361Z,10.97
2022-11-12T20:03:37.945Z,10.84
2022-11-12T20:06:09.990Z,10.92
2022-11-12T20:08:37.470Z,11.02
2022-11-12T20:11:04.875Z,11.03
2022-11-12T20:13:33.947Z,10.70
2022-11-12T20:16:09.411Z,10.75
2022-11-12T20:18:36.004Z,10.78
2022-11-12T20:21:05.937Z,10.73
2022-11-12T20:23:35.987Z,10.34
2022-11-12T20:26:12.029Z,10.56
2022-11-12T20:28:40.627Z,10.27
2022-11-12T20:31:09.643Z,10.48
2022-11-12T20:33:40.964Z,10.29
2022-11-12T20:36:16.102Z,10.25
2022-11-12T20:38:44.270Z,10.61
2022-11-12T20:41:22.197Z,10.71
2022-11-12T20:43:52.773Z,10.62
2022-11-12T20:46:21.659Z,10.52
2022-11-12T20:48:48.321Z,10.48
2022-11-12T20:51:23.783Z,10.24
2022-11-12T20:54:01.084Z,10.43
2022-11-12T20:56:30.097Z,10.25
2022-11-12T20:58:57.558Z,10.57
2022-11-12T21:01:25.745Z,10.39
2022-11-12T21:03:52.594Z,10.46
2022-11-12T21:06:21.715Z,10.40
2022-11-12T21:08:48.332Z,10.04
2022-11-12T21:11:18.440Z,10.13
2022-11-12T21:13:45.278Z,10.08
2022-11-12T21:16:13.250Z,10.11
2022-11-12T21:18:40.392Z,9.95
2022-11-12T21:21:15.426Z,10.20
2022-11-12T21:23:43.930Z,10.07
2022-11-12T21:26:21.408Z,10.27
2022-11-12T21:28:50.067Z,10.30
2022-11-12T21:31:25.443Z,10.27
2022-11-12T21:33:53.565Z,10.30
2022-11-12T21:36:21.360Z,10.44
2022-11-12T21:38:48.681Z,10.42
2022-11-12T21:41:20.688Z,10.50
2022-11-12T21:43:48.054Z,10.55
2022-11-12T21:46:26.153Z,10.42
2022-11-12T21:48:55.258Z,10.13
2022-11-12T21:51:24.555Z,10.36
2022-11-12T21:53:56.374Z,10.24
2022-11-12T21:56:23.935Z,10.28
2022-11-12T21:58:51.896Z,10.25
2022-11-12T22:01:20.788Z,10.25
2022-11-12T22:03:49.429Z,10.12
2022-11-12T22:06:16.928Z,10.14
2022-11-12T22:08:46.980Z,10.06
2022-11-12T22:11:16.057Z,9.90
2022-11-12T22:13:43.050Z,9.93
2022-11-12T22:16:11.005Z,9.76
2022-11-12T22:18:37.933Z,9.81
2022-11-12T22:21:11.559Z,9.79
2022-11-12T22:23:41.433Z,9.51
2022-11-12T22:26:14.524Z,9.52
2022-11-12T22:28:41.125Z,9.71
2022-11-12T22:31:11.542Z,9.66
2022-11-12T22:33:38.812Z,9.64
2022-11-12T22:36:18.085Z,9.49
2022-11-12T22:38:46.483Z,9.36
2022-11-12T22:41:24.670Z,9.48
2022-11-12T22:43:53.320Z,9.14
2022-11-12T22:46:22.414Z,9.46
2022-11-12T22:48:48.918Z,9.60
2022-11-12T22:51:21.055Z,9.61
2022-11-12T22:53:47.936Z,9.53
2022-11-12T22:56:16.399Z,9.53
2022-11-12T22:58:45.407Z,9.53
2022-11-12T23:01:22.925Z,9.40
2022-11-12T23:03:51.180Z,9.57
2022-11-12T23:06:18.674Z,9.50
2022-11-12T23:08:45.356Z,9.45
2022-11-12T23:11:14.374Z,9.15
2022-11-12T23:13:41.179Z,9.26
2022-11-12T23:16:13.400Z,9.26
2022-11-12T23:18:43.425Z,9.34
2022-11-12T23:21:12.805Z,9.23
2022-11-12T23:23:42.170Z,9.11
2022-11-12T23:26:12.534Z,8.94
2022-11-12T23:28:41.192Z,9.07
2022-11-12T23:31:19.370Z,9.23
2022-11-12T23:33:47.147Z,8.94
2022-11-12T23:36:13.873Z,8.67
2022-11-12T23:38:43.961Z,8.85
2022-11-12T23:41:18.142Z,8.76
2022-11-12T23:43:44.949Z,8.94
2022-11-12T23:46:14.564Z,9.04
2022-11-12T23:48:44.294Z,9.12
2022-11-12T23:51:18.758Z,8.74
2022-11-12T23:53:46.025Z,8.82
2022-11-12T23:56:17.653Z,8.96
2022-11-12T23:58:44.332Z,8.96
